Time;durP1;ratioP1;P1;durP2;ratioP2;P2;SDS_P1;SDS_P2;PMS_P1;PMS_P2;Temp;Humidity;BMP_temperature;BMP_pressure;BME280_temperature;BME280_humidity;BME280_pressure;Samples;Min_cycle;Max_cycle;Signal;HPM_P1;HPM_P2
2021/09/22 00:00:20;;;;;;;23.02;10.43;;;12.70;99.90;;;;;;4976610;28;20052;-66
2021/09/22 00:02:46;;;;;;;24.92;9.80;;;12.70;99.90;;;;;;4980485;28;20042;-66
2021/09/22 00:05:11;;;;;;;17.58;10.05;;;12.70;99.90;;;;;;4979782;28;20045;-66
2021/09/22 00:07:39;;;;;;;22.15;9.63;;;12.80;99.90;;;;;;4979512;28;20062;-66
2021/09/22 00:10:04;;;;;;;16.48;8.95;;;12.80;99.90;;;;;;4980862;28;20110;-66
2021/09/22 00:12:30;;;;;;;20.88;9.90;;;12.80;99.90;;;;;;4982384;28;20038;-66
2021/09/22 00:14:55;;;;;;;24.27;10.18;;;12.80;99.90;;;;;;4980608;28;20046;-66
2021/09/22 00:17:21;;;;;;;20.55;9.57;;;12.70;99.90;;;;;;4982183;28;20034;-66
2021/09/22 00:19:47;;;;;;;20.40;9.55;;;12.70;99.90;;;;;;4982948;28;20042;-66
2021/09/22 00:22:12;;;;;;;23.35;9.40;;;12.70;99.90;;;;;;4981899;28;20073;-66
2021/09/22 00:24:38;;;;;;;24.90;10.55;;;12.70;99.90;;;;;;4980850;28;20069;-66
2021/09/22 00:27:03;;;;;;;18.23;9.77;;;12.60;99.90;;;;;;4980912;28;20684;-66
2021/09/22 00:29:29;;;;;;;27.45;11.23;;;12.60;99.90;;;;;;4980531;28;20089;-66
2021/09/22 00:31:54;;;;;;;22.73;10.20;;;12.60;99.90;;;;;;4979771;28;20030;-66
2021/09/22 00:34:20;;;;;;;25.38;10.05;;;12.50;99.90;;;;;;4960125;28;20034;-66
2021/09/22 00:36:46;;;;;;;24.33;9.93;;;12.50;99.90;;;;;;4978512;28;20511;-66
2021/09/22 00:39:11;;;;;;;21.08;9.80;;;12.50;99.90;;;;;;4978805;28;20076;-66
2021/09/22 00:41:37;;;;;;;23.33;9.02;;;12.50;99.90;;;;;;4978950;28;20030;-66
2021/09/22 00:44:02;;;;;;;23.80;9.13;;;12.60;99.90;;;;;;4979381;28;20038;-66
2021/09/22 00:46:28;;;;;;;21.05;9.05;;;12.60;99.90;;;;;;4976477;28;20036;-66
2021/09/22 00:48:54;;;;;;;21.80;9.65;;;12.70;99.90;;;;;;4977727;28;20137;-66
2021/09/22 00:51:21;;;;;;;25.73;8.13;;;12.90;99.90;;;;;;4978404;28;20090;-66
2021/09/22 00:53:46;;;;;;;20.88;7.90;;;12.90;99.90;;;;;;4977856;28;20193;-66
2021/09/22 00:56:13;;;;;;;24.63;9.30;;;12.90;99.90;;;;;;4978985;28;20065;-66
2021/09/22 00:58:38;;;;;;;21.42;7.30;;;12.90;99.90;;;;;;4978171;28;20577;-66
2021/09/22 01:01:04;;;;;;;21.33;7.97;;;13.00;99.90;;;;;;4978816;28;20030;-66
2021/09/22 01:03:29;;;;;;;22.83;7.53;;;13.00;99.90;;;;;;4979395;28;20034;-66
2021/09/22 01:05:55;;;;;;;20.05;7.43;;;13.30;99.90;;;;;;4981046;28;20030;-66
2021/09/22 01:08:20;;;;;;;20.73;8.38;;;13.10;99.90;;;;;;4980359;28;20395;-66
2021/09/22 01:10:46;;;;;;;24.95;7.10;;;12.90;99.90;;;;;;4979241;28;20041;-66
2021/09/22 01:13:11;;;;;;;23.23;8.00;;;12.90;99.90;;;;;;4979262;28;20066;-66
2021/09/22 01:15:38;;;;;;;22.90;7.72;;;12.90;99.90;;;;;;4961826;28;20406;-66
2021/09/22 01:18:03;;;;;;;23.20;7.40;;;12.80;99.90;;;;;;4979643;28;20762;-66
2021/09/22 01:20:30;;;;;;;24.30;8.65;;;12.70;99.90;;;;;;4979575;28;20045;-66
2021/09/22 01:22:56;;;;;;;21.48;7.63;;;12.60;99.90;;;;;;4979965;28;20034;-66
2021/09/22 01:25:22;;;;;;;24.88;7.47;;;12.60;99.90;;;;;;4978995;28;20066;-66
2021/09/22 01:27:48;;;;;;;21.98;7.03;;;12.60;99.90;;;;;;4977696;28;20117;-66
2021/09/22 01:30:15;;;;;;;19.65;6.20;;;12.60;99.90;;;;;;4978008;28;20141;-66
2021/09/22 01:32:40;;;;;;;27.88;7.15;;;12.60;99.90;;;;;;4978169;28;20699;-66
2021/09/22 01:35:05;;;;;;;21.95;7.20;;;12.50;99.90;;;;;;4977583;28;20037;-66
2021/09/22 01:37:57;;;;;;;29.67;7.07;;;12.50;99.90;;;;;;4974961;28;20096;-66
2021/09/22 01:40:52;;;;;;;23.55;7.13;;;12.40;99.90;;;;;;4974488;28;20100;-66
2021/09/22 01:43:17;;;;;;;21.40;6.93;;;12.50;99.90;;;;;;4978063;28;20034;-66
2021/09/22 01:45:47;;;;;;;20.02;7.07;;;12.40;99.90;;;;;;4961589;28;20521;-66
2021/09/22 01:48:12;;;;;;;30.52;7.47;;;12.40;99.90;;;;;;4977711;28;20027;-68
2021/09/22 01:50:38;;;;;;;22.85;6.60;;;12.40;99.90;;;;;;4961723;28;20629;-68
2021/09/22 01:53:04;;;;;;;40.00;7.97;;;12.40;99.90;;;;;;4973817;28;20053;-68
2021/09/22 01:55:29;;;;;;;21.67;6.72;;;12.50;99.90;;;;;;4979601;28;20030;-68
2021/09/22 01:58:05;;;;;;;28.70;6.63;;;12.60;99.90;;;;;;4977052;28;20031;-68
2021/09/22 02:00:46;;;;;;;26.05;6.38;;;12.60;99.90;;;;;;4977726;28;20049;-68
2021/09/22 02:03:20;;;;;;;21.80;5.65;;;12.70;99.90;;;;;;4974079;28;20586;-69
2021/09/22 02:05:52;;;;;;;34.50;6.72;;;12.70;99.90;;;;;;4977711;28;20097;-68
2021/09/22 02:08:21;;;;;;;30.00;6.55;;;12.80;99.90;;;;;;4973983;28;20030;-68
2021/09/22 02:10:50;;;;;;;23.75;5.85;;;12.90;99.90;;;;;;4977215;28;20034;-68
2021/09/22 02:13:18;;;;;;;33.90;6.38;;;13.00;99.90;;;;;;4977231;28;20038;-68
2021/09/22 02:15:44;;;;;;;19.48;5.47;;;12.90;99.90;;;;;;4977010;28;20034;-68
2021/09/22 02:18:28;;;;;;;31.65;6.00;;;12.90;99.90;;;;;;4984971;28;20791;-68
2021/09/22 02:20:55;;;;;;;26.00;5.72;;;13.00;99.90;;;;;;4974816;28;20047;-68
2021/09/22 02:23:24;;;;;;;19.10;4.78;;;13.00;99.90;;;;;;4977872;28;20026;-68
2021/09/22 02:25:53;;;;;;;19.77;5.35;;;13.00;99.90;;;;;;4977480;28;20108;-68
2021/09/22 02:28:19;;;;;;;25.60;5.88;;;13.00;99.90;;;;;;4972216;28;20030;-68
2021/09/22 02:30:45;;;;;;;23.33;5.15;;;13.00;99.90;;;;;;4978641;28;20038;-68
2021/09/22 02:33:12;;;;;;;33.22;5.47;;;13.00;99.90;;;;;;4976575;28;20658;-68
2021/09/22 02:35:38;;;;;;;23.48;4.93;;;13.10;99.90;;;;;;4960366;28;20502;-68
2021/09/22 02:38:24;;;;;;;;;;;13.10;99.90;;;;;;4977882;28;20038;-68
2021/09/22 02:40:49;;;;;;;26.58;4.93;;;13.00;99.90;;;;;;4977199;28;19924;-68
2021/09/22 02:43:22;;;;;;;23.63;4.55;;;13.60;99.90;;;;;;4976778;28;20026;-68
2021/09/22 02:45:48;;;;;;;29.67;6.00;;;12.90;99.90;;;;;;4976873;28;20026;-68
2021/09/22 02:48:14;;;;;;;25.77;5.00;;;12.70;99.90;;;;;;4976517;28;20145;-68
2021/09/22 02:50:41;;;;;;;30.08;4.82;;;12.70;99.90;;;;;;4976042;28;20112;-68
2021/09/22 02:53:09;;;;;;;23.92;4.32;;;12.70;99.90;;;;;;4976381;28;20140;-68
2021/09/22 02:55:35;;;;;;;29.20;4.47;;;12.60;99.90;;;;;;4977107;28;20144;-68
2021/09/22 02:58:00;;;;;;;32.33;5.30;;;12.60;99.90;;;;;;4975580;28;20026;-68
2021/09/22 03:00:28;;;;;;;29.48;5.05;;;12.50;99.90;;;;;;4976881;28;20035;-68
2021/09/22 03:02:55;;;;;;;25.33;5.25;;;12.60;99.90;;;;;;4976793;28;20034;-68
2021/09/22 03:05:21;;;;;;;32.38;6.20;;;12.50;99.90;;;;;;4979835;28;20116;-68
2021/09/22 03:07:46;;;;;;;26.23;5.13;;;12.40;99.90;;;;;;4981692;28;20920;-68
2021/09/22 03:10:12;;;;;;;25.67;4.90;;;12.40;99.90;;;;;;4979630;28;20036;-68
2021/09/22 03:12:38;;;;;;;21.77;4.80;;;12.40;99.90;;;;;;4980128;28;20155;-68
2021/09/22 03:15:04;;;;;;;20.40;4.20;;;12.30;99.90;;;;;;4980203;28;20041;-68
2021/09/22 03:17:31;;;;;;;26.65;4.75;;;12.30;99.90;;;;;;4979810;28;20045;-68
2021/09/22 03:19:57;;;;;;;27.17;4.78;;;12.30;99.90;;;;;;4980970;28;20027;-68
2021/09/22 03:22:22;;;;;;;24.80;4.47;;;12.30;99.90;;;;;;4979476;28;20062;-68
2021/09/22 03:25:11;;;;;;;31.05;5.97;;;12.40;99.90;;;;;;4980357;28;20041;-67
2021/09/22 03:27:37;;;;;;;25.40;4.55;;;12.40;99.90;;;;;;4978821;28;20026;-67
2021/09/22 03:30:03;;;;;;;32.22;6.47;;;12.40;99.90;;;;;;4969146;28;20116;-68
2021/09/22 03:32:29;;;;;;;28.52;5.15;;;12.40;99.90;;;;;;4963906;28;20494;-67
2021/09/22 03:34:54;;;;;;;27.17;4.85;;;12.40;99.90;;;;;;4979669;28;20057;-67
2021/09/22 03:37:20;;;;;;;31.77;6.18;;;12.40;99.90;;;;;;4979713;28;20130;-67
2021/09/22 03:39:46;;;;;;;24.63;5.30;;;12.40;99.90;;;;;;4979895;28;20042;-68
2021/09/22 03:42:11;;;;;;;30.05;4.57;;;12.30;99.90;;;;;;4978410;28;20030;-68
2021/09/22 03:44:37;;;;;;;28.00;5.57;;;12.20;99.90;;;;;;4979014;28;20033;-68
2021/09/22 03:47:03;;;;;;;28.90;5.53;;;12.30;99.90;;;;;;4980625;28;20396;-67
2021/09/22 03:49:28;;;;;;;22.40;4.75;;;12.20;99.90;;;;;;4978645;28;20040;-67
2021/09/22 03:52:02;;;;;;;49.03;6.18;;;12.20;99.90;;;;;;4978570;28;20030;-67
2021/09/22 03:54:27;;;;;;;18.50;4.55;;;12.20;99.90;;;;;;4979037;28;20101;-67
2021/09/22 03:56:54;;;;;;;33.38;5.78;;;12.30;99.90;;;;;;4962491;28;20034;-67
2021/09/22 03:59:19;;;;;;;23.25;5.25;;;12.20;99.90;;;;;;4978791;28;20040;-67
2021/09/22 04:01:46;;;;;;;32.90;5.65;;;12.20;99.90;;;;;;4978894;28;20045;-67
2021/09/22 04:04:11;;;;;;;26.38;4.38;;;12.20;99.90;;;;;;4979086;28;20038;-67
2021/09/22 04:06:37;;;;;;;21.02;5.03;;;12.10;99.90;;;;;;4977269;28;20046;-67
2021/09/22 04:09:03;;;;;;;27.98;5.00;;;12.10;99.90;;;;;;4977828;28;20062;-67
2021/09/22 04:11:29;;;;;;;31.05;4.55;;;12.20;99.90;;;;;;4962269;28;20154;-67
2021/09/22 04:13:56;;;;;;;26.38;4.60;;;12.20;99.90;;;;;;4978145;28;20027;-68
2021/09/22 04:16:21;;;;;;;27.85;4.65;;;12.20;99.90;;;;;;4977522;28;20716;-67
2021/09/22 04:18:47;;;;;;;23.90;4.30;;;12.10;99.90;;;;;;4977672;28;20038;-67
2021/09/22 04:21:12;;;;;;;29.25;4.95;;;12.20;99.90;;;;;;4979482;28;20048;-67
2021/09/22 04:23:38;;;;;;;31.77;5.10;;;12.20;99.90;;;;;;4982490;28;20129;-67
2021/09/22 04:26:05;;;;;;;32.92;4.65;;;12.10;99.90;;;;;;4979540;28;20054;-67
2021/09/22 04:28:30;;;;;;;26.45;5.00;;;12.20;99.90;;;;;;4978851;28;20815;-68
2021/09/22 04:31:14;;;;;;;24.42;5.38;;;12.20;99.90;;;;;;4987678;28;20132;-68
2021/09/22 04:33:59;;;;;;;23.55;3.85;;;12.10;99.90;;;;;;4987290;28;20681;-68
2021/09/22 04:36:43;;;;;;;29.08;5.53;;;12.00;99.90;;;;;;4981511;28;20108;-68
2021/09/22 04:39:27;;;;;;;31.10;5.63;;;11.90;99.90;;;;;;4980644;28;20128;-67
2021/09/22 04:42:12;;;;;;;36.65;5.47;;;11.90;99.90;;;;;;4982792;28;20041;-67
2021/09/22 04:44:56;;;;;;;29.40;5.38;;;12.00;99.90;;;;;;4979145;28;20113;-66
2021/09/22 04:47:40;;;;;;;38.08;5.32;;;12.00;99.90;;;;;;4983599;28;20129;-66
2021/09/22 04:50:24;;;;;;;31.13;6.28;;;12.00;99.90;;;;;;4977511;28;20205;-65
2021/09/22 04:53:08;;;;;;;23.02;5.78;;;12.00;99.90;;;;;;4976611;28;20096;-65
2021/09/22 04:55:53;;;;;;;33.60;4.63;;;12.00;99.90;;;;;;4982443;28;20049;-65
2021/09/22 04:58:37;;;;;;;32.55;5.60;;;12.10;99.90;;;;;;4977786;28;20050;-65
2021/09/22 05:01:28;;;;;;;33.53;5.45;;;12.10;99.90;;;;;;4975262;28;20129;-66
2021/09/22 05:04:12;;;;;;;23.80;4.68;;;12.20;99.90;;;;;;4982982;28;20044;-65
2021/09/22 05:06:57;;;;;;;30.83;5.05;;;12.10;99.90;;;;;;4978189;28;20101;-65
2021/09/22 05:09:41;;;;;;;30.98;5.00;;;12.10;99.90;;;;;;4986039;28;20045;-65
2021/09/22 05:12:25;;;;;;;44.38;7.95;;;12.10;99.90;;;;;;4979693;28;20100;-66
2021/09/22 05:15:10;;;;;;;40.25;5.85;;;12.20;99.90;;;;;;4979956;28;20040;-69
2021/09/22 05:17:54;;;;;;;26.20;4.35;;;12.20;99.90;;;;;;4986440;28;20141;-65
2021/09/22 05:20:38;;;;;;;20.65;4.28;;;12.20;99.90;;;;;;4979553;28;20053;-65
2021/09/22 05:23:22;;;;;;;30.95;3.85;;;12.30;99.90;;;;;;4980827;28;20884;-65
2021/09/22 05:26:07;;;;;;;21.90;4.15;;;12.30;99.90;;;;;;4985257;28;20049;-65
2021/09/22 05:28:51;;;;;;;38.78;6.22;;;12.70;99.90;;;;;;4978165;28;20097;-65
2021/09/22 05:31:35;;;;;;;21.27;4.25;;;12.30;99.90;;;;;;4980772;28;20126;-65
2021/09/22 05:34:20;;;;;;;24.63;4.50;;;12.40;99.90;;;;;;4984458;28;20126;-65
2021/09/22 05:37:04;;;;;;;24.95;3.78;;;12.40;99.90;;;;;;4977831;28;20084;-65
2021/09/22 05:39:48;;;;;;;21.13;3.67;;;12.40;99.90;;;;;;4980887;28;20592;-65
2021/09/22 05:42:33;;;;;;;43.63;4.63;;;12.40;99.90;;;;;;4980740;28;20127;-65
2021/09/22 05:45:17;;;;;;;29.42;4.05;;;13.40;99.90;;;;;;4988750;28;20084;-65
2021/09/22 05:48:01;;;;;;;29.77;3.85;;;12.50;99.90;;;;;;4983129;28;20045;-65
2021/09/22 05:50:45;;;;;;;22.98;4.15;;;12.60;99.90;;;;;;4976679;28;20104;-70
2021/09/22 05:53:29;;;;;;;26.27;3.35;;;12.60;99.90;;;;;;4977633;28;20236;-70
2021/09/22 05:56:14;;;;;;;25.90;4.57;;;12.70;99.90;;;;;;4982313;28;20040;-69
2021/09/22 05:58:58;;;;;;;25.70;4.22;;;12.80;99.90;;;;;;4976807;28;20117;-69
2021/09/22 06:01:42;;;;;;;23.15;4.60;;;12.80;99.90;;;;;;4984469;28;20132;-70
2021/09/22 06:04:46;;;;;;;30.50;5.25;;;13.20;99.90;;;;;;4978684;28;20120;-70
2021/09/22 06:07:38;;;;;;;33.20;4.88;;;13.10;99.90;;;;;;4977248;28;20049;-70
2021/09/22 06:10:22;;;;;;;35.30;6.40;;;13.20;99.90;;;;;;4982009;28;20934;-70
2021/09/22 06:13:06;;;;;;;41.38;4.88;;;13.00;99.90;;;;;;4963631;28;20041;-70
2021/09/22 06:15:32;;;;;;;26.27;4.55;;;13.10;99.90;;;;;;4977832;28;20034;-70
2021/09/22 06:18:01;;;;;;;29.85;4.55;;;13.00;99.90;;;;;;4961138;28;20060;-70
2021/09/22 06:20:26;;;;;;;32.67;4.80;;;13.10;99.90;;;;;;4978602;28;20030;-65
2021/09/22 06:22:52;;;;;;;18.88;3.83;;;13.10;99.90;;;;;;4977119;28;20092;-65
2021/09/22 06:25:17;;;;;;;30.27;4.55;;;13.10;99.90;;;;;;4978595;28;20613;-65
2021/09/22 06:27:43;;;;;;;24.23;4.50;;;13.00;99.90;;;;;;4978772;28;20030;-65
2021/09/22 06:30:08;;;;;;;28.02;4.07;;;13.10;99.90;;;;;;4977947;28;20180;-65
2021/09/22 06:32:36;;;;;;;26.17;3.78;;;13.10;99.90;;;;;;4976746;28;20037;-65
2021/09/22 06:35:07;;;;;;;24.75;4.38;;;13.20;99.90;;;;;;4983405;28;20132;-65
2021/09/22 06:37:55;;;;;;;24.20;3.78;;;13.20;99.90;;;;;;4975075;28;20042;-65
2021/09/22 06:40:25;;;;;;;36.05;4.20;;;13.20;99.90;;;;;;4978790;28;20044;-65
2021/09/22 06:42:57;;;;;;;26.60;4.40;;;13.10;99.90;;;;;;4980973;28;20038;-65
2021/09/22 06:45:22;;;;;;;24.65;4.15;;;13.30;99.90;;;;;;4982799;28;20045;-65
2021/09/22 06:47:48;;;;;;;29.30;4.78;;;13.30;99.90;;;;;;4981749;28;20034;-64
2021/09/22 06:50:13;;;;;;;25.13;4.05;;;13.30;99.90;;;;;;4982630;28;20038;-66
2021/09/22 06:52:39;;;;;;;28.90;4.00;;;13.30;99.90;;;;;;4982017;28;20074;-65
2021/09/22 06:55:04;;;;;;;25.58;3.78;;;13.30;99.90;;;;;;4982237;28;20038;-65
2021/09/22 06:57:30;;;;;;;27.02;4.22;;;13.40;99.90;;;;;;4981517;28;20042;-65
2021/09/22 06:59:55;;;;;;;18.88;3.08;;;13.50;99.90;;;;;;4982109;28;20030;-65
2021/09/22 07:02:21;;;;;;;20.48;3.17;;;13.50;99.90;;;;;;4977043;28;20031;-65
2021/09/22 07:04:46;;;;;;;29.25;3.78;;;13.50;99.90;;;;;;4982138;28;20030;-65
2021/09/22 07:07:11;;;;;;;22.50;3.92;;;13.70;99.90;;;;;;4982068;28;20497;-65
2021/09/22 07:09:37;;;;;;;26.98;4.55;;;13.60;99.90;;;;;;4981325;28;20525;-65
2021/09/22 07:12:02;;;;;;;29.92;4.07;;;13.50;99.90;;;;;;4981827;28;20125;-66
2021/09/22 07:14:28;;;;;;;30.00;5.28;;;13.50;99.90;;;;;;4980728;28;20490;-72
2021/09/22 07:16:54;;;;;;;23.15;4.07;;;13.60;99.90;;;;;;4981014;28;20049;-71
2021/09/22 07:19:19;;;;;;;36.97;5.25;;;13.60;99.90;;;;;;4980238;28;20035;-71
2021/09/22 07:21:44;;;;;;;27.40;5.20;;;13.60;99.90;;;;;;4981198;28;20069;-71
2021/09/22 07:24:10;;;;;;;38.47;5.22;;;13.80;99.90;;;;;;4979921;28;20037;-71
2021/09/22 07:26:36;;;;;;;43.65;11.48;;;13.90;99.90;;;;;;4981533;28;20633;-71
2021/09/22 07:29:01;;;;;;;27.45;5.22;;;14.00;99.90;;;;;;4979582;28;20033;-72
2021/09/22 07:31:27;;;;;;;23.17;4.60;;;14.00;99.90;;;;;;4981330;28;20038;-65
2021/09/22 07:33:52;;;;;;;25.98;4.05;;;14.00;99.90;;;;;;4980800;28;20113;-65
2021/09/22 07:36:18;;;;;;;30.33;4.95;;;14.00;99.90;;;;;;4984573;28;20602;-65
2021/09/22 07:38:43;;;;;;;24.30;3.90;;;14.00;99.90;;;;;;4982601;28;20026;-65
2021/09/22 07:41:08;;;;;;;21.30;4.00;;;14.10;99.90;;;;;;4980067;28;20069;-65
2021/09/22 07:43:34;;;;;;;31.30;4.00;;;14.20;99.90;;;;;;4980655;28;20034;-65
2021/09/22 07:45:59;;;;;;;19.00;3.80;;;14.20;99.90;;;;;;4980846;28;20418;-65
2021/09/22 07:48:25;;;;;;;23.27;4.00;;;14.20;99.90;;;;;;4980748;28;20194;-65
2021/09/22 07:50:50;;;;;;;28.83;4.25;;;14.20;99.90;;;;;;4979634;28;20062;-65
2021/09/22 07:53:16;;;;;;;24.45;3.20;;;14.30;99.90;;;;;;4980742;28;20193;-65
2021/09/22 07:55:41;;;;;;;29.52;4.43;;;14.20;99.90;;;;;;4980687;28;20049;-65
2021/09/22 07:58:07;;;;;;;22.88;3.53;;;14.40;99.90;;;;;;4979995;28;20133;-65
2021/09/22 08:00:32;;;;;;;25.92;3.65;;;14.50;99.90;;;;;;4980418;28;20651;-65
2021/09/22 08:02:59;;;;;;;23.98;3.88;;;14.60;99.90;;;;;;4981984;28;20596;-65
2021/09/22 08:05:25;;;;;;;23.15;3.75;;;14.60;99.90;;;;;;4980734;28;20038;-65
2021/09/22 08:07:51;;;;;;;26.08;4.40;;;14.80;99.90;;;;;;4979252;28;20034;-65
2021/09/22 08:10:16;;;;;;;24.95;3.80;;;14.40;99.90;;;;;;4979527;28;20044;-65
2021/09/22 08:12:42;;;;;;;24.85;3.53;;;14.80;99.90;;;;;;4978702;28;20045;-65
2021/09/22 08:15:07;;;;;;;27.65;4.78;;;14.90;99.90;;;;;;4980159;28;20030;-65
2021/09/22 08:17:33;;;;;;;27.85;4.07;;;15.00;99.90;;;;;;4979569;28;20573;-65
2021/09/22 08:19:58;;;;;;;25.50;3.75;;;15.10;99.90;;;;;;4979651;28;20038;-65
2021/09/22 08:22:24;;;;;;;19.42;3.75;;;15.20;99.90;;;;;;4978959;28;20045;-65
2021/09/22 08:24:49;;;;;;;33.03;4.35;;;15.20;99.90;;;;;;4976571;28;20034;-65
2021/09/22 08:27:15;;;;;;;28.90;4.25;;;15.20;99.90;;;;;;4978896;28;20810;-65
2021/09/22 08:29:41;;;;;;;31.35;4.25;;;15.20;99.90;;;;;;4979871;28;20116;-65
2021/09/22 08:32:06;;;;;;;22.13;3.60;;;15.30;99.90;;;;;;4979058;28;20038;-69
2021/09/22 08:34:32;;;;;;;22.90;4.15;;;15.50;99.90;;;;;;4978875;28;20161;-68
2021/09/22 08:36:57;;;;;;;20.73;3.17;;;15.60;99.90;;;;;;4987733;28;20076;-65
2021/09/22 08:39:23;;;;;;;26.38;4.10;;;15.60;99.90;;;;;;4981387;28;20038;-65
2021/09/22 08:41:49;;;;;;;23.20;4.78;;;15.70;99.90;;;;;;4981345;28;20081;-65
2021/09/22 08:44:14;;;;;;;20.80;4.20;;;15.70;99.90;;;;;;4982193;28;20029;-65
2021/09/22 08:46:40;;;;;;;28.85;4.40;;;15.70;99.90;;;;;;4979384;28;20027;-65
2021/09/22 08:49:06;;;;;;;22.38;3.35;;;15.80;99.90;;;;;;4980380;28;20030;-65
2021/09/22 08:51:31;;;;;;;21.60;3.92;;;15.80;99.90;;;;;;4979815;28;20616;-66
2021/09/22 08:53:57;;;;;;;26.00;4.50;;;15.90;99.90;;;;;;4979915;28;20034;-65
2021/09/22 08:56:22;;;;;;;34.85;4.72;;;16.20;99.90;;;;;;4980420;28;20030;-65
2021/09/22 08:58:48;;;;;;;29.38;7.20;;;16.20;99.90;;;;;;4978865;28;20019;-65
2021/09/22 09:01:14;;;;;;;26.60;5.72;;;16.30;99.90;;;;;;4979023;28;20034;-65
2021/09/22 09:03:41;;;;;;;27.08;4.50;;;16.30;99.90;;;;;;4978930;28;20052;-65
2021/09/22 09:06:07;;;;;;;28.25;8.63;;;16.60;99.90;;;;;;4978669;28;20042;-65
2021/09/22 09:08:32;;;;;;;36.33;7.97;;;16.50;99.90;;;;;;4977878;28;20038;-65
2021/09/22 09:10:58;;;;;;;66.03;20.35;;;16.40;99.90;;;;;;4978278;28;20040;-65
2021/09/22 09:13:23;;;;;;;44.17;12.68;;;16.40;99.90;;;;;;4978265;28;20141;-65
2021/09/22 09:15:49;;;;;;;63.42;18.95;;;16.60;99.90;;;;;;4977588;28;20034;-65
2021/09/22 09:18:16;;;;;;;40.30;10.35;;;16.70;99.90;;;;;;4978955;28;20410;-65
2021/09/22 09:20:41;;;;;;;26.48;4.82;;;16.90;99.90;;;;;;4976630;28;20042;-65
2021/09/22 09:23:07;;;;;;;77.22;25.30;;;17.00;99.90;;;;;;4978362;28;20054;-65
2021/09/22 09:25:32;;;;;;;56.13;17.60;;;17.10;99.90;;;;;;4980539;28;20772;-65
2021/09/22 09:27:58;;;;;;;38.83;12.63;;;17.00;99.90;;;;;;4980498;28;20037;-65
2021/09/22 09:30:23;;;;;;;45.15;12.65;;;17.20;99.90;;;;;;4979926;28;20406;-65
2021/09/22 09:32:49;;;;;;;38.35;12.82;;;17.20;99.90;;;;;;4979865;28;20041;-65
2021/09/22 09:35:14;;;;;;;47.33;12.43;;;17.30;99.90;;;;;;4978082;28;20538;-65
2021/09/22 09:37:40;;;;;;;53.33;15.50;;;17.20;99.90;;;;;;4977605;28;20038;-65
2021/09/22 09:40:05;;;;;;;46.83;13.52;;;17.30;99.90;;;;;;4979956;28;20140;-65
2021/09/22 09:42:31;;;;;;;34.28;8.77;;;17.40;99.90;;;;;;4979131;28;20041;-66
2021/09/22 09:44:57;;;;;;;34.35;7.80;;;17.20;99.90;;;;;;4979671;28;20136;-65
2021/09/22 09:47:22;;;;;;;43.17;7.72;;;17.30;99.90;;;;;;4979144;28;20038;-65
2021/09/22 09:49:48;;;;;;;32.25;6.47;;;17.40;99.90;;;;;;4977923;28;20026;-65
2021/09/22 09:52:13;;;;;;;26.15;5.38;;;17.30;99.90;;;;;;4977551;28;20180;-65
2021/09/22 09:54:39;;;;;;;39.13;8.38;;;17.30;99.90;;;;;;4978812;28;20045;-65
2021/09/22 09:57:04;;;;;;;29.65;6.57;;;17.50;99.90;;;;;;4978933;28;20042;-65
2021/09/22 09:59:30;;;;;;;33.80;6.75;;;17.40;99.90;;;;;;4976794;28;20058;-64
2021/09/22 10:01:55;;;;;;;41.10;7.03;;;17.70;99.90;;;;;;4978915;28;20680;-65
2021/09/22 10:04:21;;;;;;;27.50;4.45;;;17.70;99.90;;;;;;4977503;28;20034;-66
2021/09/22 10:06:47;;;;;;;47.90;12.55;;;17.60;99.90;;;;;;4978753;28;20205;-65
2021/09/22 10:09:13;;;;;;;49.63;13.63;;;17.80;99.90;;;;;;4978896;28;20041;-65
2021/09/22 10:11:38;;;;;;;35.85;6.95;;;17.80;99.90;;;;;;4978712;28;20042;-65
2021/09/22 10:14:04;;;;;;;46.60;10.43;;;17.80;99.90;;;;;;4978768;28;20133;-65
2021/09/22 10:16:29;;;;;;;48.35;13.57;;;17.70;99.90;;;;;;4978982;28;20129;-65
2021/09/22 10:18:55;;;;;;;37.28;10.05;;;17.90;99.90;;;;;;4975726;28;20165;-65
2021/09/22 10:21:20;;;;;;;37.83;6.03;;;18.00;99.90;;;;;;4977232;28;20076;-64
2021/09/22 10:23:46;;;;;;;29.75;7.47;;;18.20;99.90;;;;;;4973987;28;20038;-65
2021/09/22 10:26:11;;;;;;;38.60;9.57;;;18.30;99.90;;;;;;4978965;28;20030;-66
2021/09/22 10:28:37;;;;;;;51.78;15.60;;;18.20;99.90;;;;;;4978720;28;20491;-65
2021/09/22 10:31:03;;;;;;;54.10;14.05;;;18.10;99.90;;;;;;4978060;28;20030;-65
2021/09/22 10:33:28;;;;;;;39.90;5.75;;;18.00;99.90;;;;;;4978577;28;20120;-65
2021/09/22 10:35:53;;;;;;;36.03;10.75;;;18.00;99.90;;;;;;4978305;28;20042;-65
2021/09/22 10:38:19;;;;;;;42.42;10.80;;;17.90;99.90;;;;;;4977385;28;20038;-65
2021/09/22 10:40:44;;;;;;;57.97;16.67;;;18.20;99.90;;;;;;4977196;28;20832;-65
2021/09/22 10:43:10;;;;;;;42.63;12.63;;;18.70;99.90;;;;;;4977923;28;20065;-66
2021/09/22 10:45:36;;;;;;;19.92;3.80;;;18.80;99.90;;;;;;4978200;28;20568;-66
2021/09/22 10:48:01;;;;;;;31.42;5.00;;;19.00;99.90;;;;;;4976075;28;20035;-66
2021/09/22 10:50:27;;;;;;;25.23;5.18;;;19.20;99.90;;;;;;4977973;28;20108;-66
2021/09/22 10:52:53;;;;;;;34.13;8.88;;;19.00;99.90;;;;;;4976914;28;20037;-65
2021/09/22 10:55:18;;;;;;;29.42;5.72;;;19.10;99.90;;;;;;4974099;28;20083;-65
2021/09/22 10:57:44;;;;;;;25.77;4.50;;;19.30;99.90;;;;;;4977446;28;20122;-65
2021/09/22 11:00:09;;;;;;;20.13;3.78;;;19.30;99.90;;;;;;4976400;28;20057;-65
2021/09/22 11:02:35;;;;;;;27.40;4.88;;;19.20;99.90;;;;;;4977670;28;20042;-64
2021/09/22 11:05:00;;;;;;;32.47;4.65;;;18.90;99.90;;;;;;4977503;28;20692;-65
2021/09/22 11:07:26;;;;;;;31.35;5.30;;;19.00;99.90;;;;;;4975081;28;20034;-65
2021/09/22 11:09:52;;;;;;;27.63;5.63;;;19.00;99.90;;;;;;4977932;28;20034;-65
2021/09/22 11:12:17;;;;;;;64.00;23.75;;;19.00;99.90;;;;;;4975612;28;20086;-65
2021/09/22 11:14:43;;;;;;;36.92;7.88;;;19.00;99.90;;;;;;4977039;28;20475;-66
2021/09/22 11:17:08;;;;;;;28.73;5.38;;;18.80;99.90;;;;;;4976298;28;20069;-66
2021/09/22 11:19:34;;;;;;;24.30;4.65;;;19.10;99.90;;;;;;4976775;28;20057;-66
2021/09/22 11:21:59;;;;;;;25.38;5.05;;;19.20;99.90;;;;;;4975404;28;20038;-65
2021/09/22 11:24:26;;;;;;;18.58;3.80;;;19.20;99.90;;;;;;4976764;28;20043;-65
2021/09/22 11:26:51;;;;;;;19.45;3.25;;;19.50;99.90;;;;;;4977948;28;20034;-66
2021/09/22 11:29:17;;;;;;;19.20;3.42;;;19.50;99.90;;;;;;4979554;28;21071;-65
2021/09/22 11:31:42;;;;;;;30.45;4.82;;;19.60;99.90;;;;;;4980037;28;20030;-67
2021/09/22 11:34:08;;;;;;;20.52;4.18;;;19.60;99.90;;;;;;4980006;28;20924;-67
2021/09/22 11:36:34;;;;;;;24.65;3.58;;;19.70;99.90;;;;;;4979482;28;20038;-66
2021/09/22 11:39:00;;;;;;;34.00;8.98;;;20.00;99.70;;;;;;4979730;28;20038;-69
2021/09/22 11:41:25;;;;;;;21.33;3.83;;;19.70;99.90;;;;;;4978754;28;20033;-71
2021/09/22 11:43:51;;;;;;;27.20;4.25;;;19.80;99.90;;;;;;4979882;28;20498;-73
2021/09/22 11:46:16;;;;;;;29.25;3.85;;;19.90;99.90;;;;;;4980063;28;20152;-72
2021/09/22 11:48:42;;;;;;;27.23;7.80;;;20.30;99.00;;;;;;4982357;28;20109;-73
2021/09/22 11:51:07;;;;;;;12.73;2.63;;;20.60;97.90;;;;;;4978833;28;20613;-72
2021/09/22 11:53:33;;;;;;;19.23;2.80;;;20.90;98.40;;;;;;4981082;28;20375;-73
2021/09/22 11:55:59;;;;;;;15.20;2.65;;;21.00;96.90;;;;;;4979608;28;20062;-72
2021/09/22 11:58:25;;;;;;;21.88;4.30;;;21.00;95.80;;;;;;4977876;28;20721;-73
2021/09/22 12:00:51;;;;;;;14.30;2.72;;;20.70;97.80;;;;;;4977112;28;20034;-68
2021/09/22 12:03:16;;;;;;;21.40;3.22;;;20.80;97.20;;;;;;4980648;28;20046;-69
2021/09/22 12:05:42;;;;;;;15.93;2.97;;;20.90;97.40;;;;;;4979359;28;20029;-69
2021/09/22 12:08:07;;;;;;;16.77;2.90;;;20.70;97.70;;;;;;4979515;28;20458;-68
2021/09/22 12:10:33;;;;;;;21.48;2.95;;;20.50;98.60;;;;;;4979805;28;20026;-68
2021/09/22 12:12:59;;;;;;;17.38;2.80;;;20.10;99.90;;;;;;4977611;28;20149;-70
2021/09/22 12:15:24;;;;;;;22.67;3.30;;;20.10;99.00;;;;;;4978483;28;20850;-68
2021/09/22 12:17:51;;;;;;;25.65;3.15;;;19.70;99.90;;;;;;4979573;28;20065;-69
2021/09/22 12:20:16;;;;;;;22.88;4.53;;;19.60;99.90;;;;;;4978877;28;20069;-68
2021/09/22 12:22:42;;;;;;;18.80;3.63;;;19.70;99.90;;;;;;4977590;28;20121;-68
2021/09/22 12:25:07;;;;;;;28.00;5.00;;;20.20;99.90;;;;;;4978913;28;20101;-69
2021/09/22 12:27:33;;;;;;;26.23;4.30;;;20.50;99.80;;;;;;4978912;28;20061;-69
2021/09/22 12:29:58;;;;;;;18.98;3.10;;;21.40;98.50;;;;;;4979027;28;20084;-72
2021/09/22 12:32:24;;;;;;;16.02;2.92;;;21.20;99.70;;;;;;4977960;28;20034;-65
2021/09/22 12:34:49;;;;;;;23.75;3.65;;;21.20;99.90;;;;;;4979095;28;20620;-65
2021/09/22 12:37:15;;;;;;;21.98;2.83;;;21.20;98.00;;;;;;4977699;28;20022;-66
2021/09/22 12:39:41;;;;;;;21.38;3.67;;;21.10;97.20;;;;;;4978661;28;20776;-66
2021/09/22 12:42:06;;;;;;;12.70;3.42;;;20.40;98.50;;;;;;4980434;28;20033;-65